createdAt,value
2023-01-05T00:01:13.807Z,98124.87
2023-01-05T00:03:41.768Z,98120.03
2023-01-05T00:06:15.344Z,98109.58
2023-01-05T00:08:44.038Z,98111.47
2023-01-05T00:11:34.022Z,98119.55
2023-01-05T00:14:21.239Z,98131.91
2023-01-05T00:17:07.697Z,98122.78
2023-01-05T00:19:54.469Z,98125.50
2023-01-05T00:22:31.320Z,98120.92
2023-01-05T00:25:09.323Z,98119.84
2023-01-05T00:27:32.830Z,98119.04
2023-01-05T00:30:00.976Z,98109.64
2023-01-05T00:32:29.005Z,98097.55
2023-01-05T00:34:58.432Z,98095.92
2023-01-05T00:37:32.512Z,98096.43
2023-01-05T00:40:00.191Z,98097.23
2023-01-05T00:42:27.920Z,98100.20
2023-01-05T00:44:55.593Z,98097.84
2023-01-05T00:47:23.383Z,98097.04
2023-01-05T00:49:51.073Z,98101.09
2023-01-05T00:52:18.655Z,98098.98
2023-01-05T00:54:46.185Z,98092.55
2023-01-05T00:57:14.560Z,98078.84
2023-01-05T00:59:42.446Z,98074.30
2023-01-05T01:02:10.361Z,98078.06
2023-01-05T01:04:39.117Z,98077.52
2023-01-05T01:07:07.106Z,98083.44
2023-01-05T01:09:35.117Z,98076.48
2023-01-05T01:12:03.538Z,98083.48
2023-01-05T01:14:31.398Z,98078.42
2023-01-05T01:16:59.187Z,98079.23
2023-01-05T01:19:27.963Z,98064.22
2023-01-05T01:21:55.720Z,98070.38
2023-01-05T01:24:27.205Z,98071.44
2023-01-05T01:26:55.653Z,98061.53
2023-01-05T01:29:24.241Z,98060.98
2023-01-05T01:31:53.884Z,98059.64
2023-01-05T01:34:22.727Z,98060.19
2023-01-05T01:36:50.535Z,98055.34
2023-01-05T01:39:19.956Z,98045.66
2023-01-05T01:41:49.475Z,98031.16
2023-01-05T01:44:50.877Z,98022.83
2023-01-05T01:47:25.777Z,98013.40
2023-01-05T01:49:55.488Z,98017.94
2023-01-05T01:52:25.321Z,98011.20
2023-01-05T01:54:53.580Z,98014.93
2023-01-05T01:57:22.461Z,98009.53
2023-01-05T01:59:50.766Z,98001.18
2023-01-05T02:02:20.781Z,98007.38
2023-01-05T02:04:49.764Z,98002.56
2023-01-05T02:07:17.478Z,97997.44
2023-01-05T02:09:46.404Z,97996.36
2023-01-05T02:12:52.813Z,97980.28
2023-01-05T02:15:41.120Z,97973.27
2023-01-05T02:18:35.907Z,97977.84
2023-01-05T02:21:21.353Z,97981.37
2023-01-05T02:24:08.005Z,97981.66
2023-01-05T02:26:45.403Z,97970.38
2023-01-05T02:29:50.518Z,97967.44
2023-01-05T02:32:22.523Z,97955.94
2023-01-05T02:35:03.898Z,97954.34
2023-01-05T02:37:48.472Z,97953.80
2023-01-05T02:40:21.482Z,97931.56
2023-01-05T02:42:52.916Z,97922.96
2023-01-05T02:45:22.482Z,97913.86
2023-01-05T02:47:51.529Z,97913.86
2023-01-05T02:50:30.765Z,97917.89
2023-01-05T02:53:11.505Z,97910.66
2023-01-05T02:55:52.912Z,97902.61
2023-01-05T02:58:30.631Z,97899.93
2023-01-05T03:01:17.723Z,97891.34
2023-01-05T03:04:04.237Z,97878.45
2023-01-05T03:06:43.311Z,97882.70
2023-01-05T03:09:26.936Z,97876.78
2023-01-05T03:12:50.407Z,97879.42
2023-01-05T03:15:34.275Z,97878.33
2023-01-05T03:18:16.729Z,97882.86
2023-01-05T03:20:51.219Z,97877.20
2023-01-05T03:23:47.173Z,97862.92
2023-01-05T03:26:40.637Z,97868.29
2023-01-05T03:29:39.042Z,97873.11
2023-01-05T03:32:42.031Z,97870.66
2023-01-05T03:35:33.655Z,97856.70
2023-01-05T03:38:28.722Z,97852.37
2023-01-05T03:41:00.488Z,97848.09
2023-01-05T03:43:29.104Z,97841.39
2023-01-05T03:45:57.823Z,97832.23
2023-01-05T03:48:28.870Z,97831.73
2023-01-05T03:50:56.905Z,97833.58
2023-01-05T03:53:25.420Z,97831.48
2023-01-05T03:55:53.927Z,97829.86
2023-01-05T03:58:22.137Z,97829.09
2023-01-05T04:00:50.207Z,97824.03
2023-01-05T04:03:18.591Z,97816.23
2023-01-05T04:05:46.715Z,97809.81
2023-01-05T04:08:16.443Z,97810.38
2023-01-05T04:10:44.870Z,97819.27
2023-01-05T04:13:13.422Z,97819.27
2023-01-05T04:15:42.831Z,97817.12
2023-01-05T04:18:10.774Z,97808.28
2023-01-05T04:20:38.956Z,97810.72
2023-01-05T04:23:07.258Z,97813.95
2023-01-05T04:25:35.014Z,97806.99
2023-01-05T04:28:04.827Z,97802.17
2023-01-05T04:30:33.776Z,97791.98
2023-01-05T04:33:01.443Z,97793.03
2023-01-05T04:35:29.584Z,97786.06
2023-01-05T04:37:57.344Z,97788.70
2023-01-05T04:40:24.895Z,97793.28
2023-01-05T04:42:53.643Z,97791.13
2023-01-05T04:45:21.638Z,97788.16
2023-01-05T04:47:51.966Z,97781.69
2023-01-05T04:50:21.159Z,97770.95
2023-01-05T04:52:49.233Z,97757.22
2023-01-05T04:55:17.909Z,97754.52
2023-01-05T04:57:45.690Z,97750.75
2023-01-05T05:00:14.342Z,97738.66
2023-01-05T05:02:43.864Z,97741.35
2023-01-05T05:05:13.779Z,97728.48
2023-01-05T05:07:41.474Z,97728.24
2023-01-05T05:10:10.143Z,97723.73
2023-01-05T05:12:39.359Z,97729.15
2023-01-05T05:15:09.067Z,97727.58
2023-01-05T05:17:36.698Z,97722.00
2023-01-05T05:20:06.072Z,97724.16
2023-01-05T05:22:33.911Z,97717.74
2023-01-05T05:25:01.983Z,97714.81
2023-01-05T05:27:30.377Z,97710.00
2023-01-05T05:29:58.089Z,97706.02
2023-01-05T05:32:25.833Z,97713.53
2023-01-05T05:34:53.563Z,97708.45
2023-01-05T05:37:21.138Z,97705.77
2023-01-05T05:39:48.879Z,97705.77
2023-01-05T05:42:16.415Z,97709.80
2023-01-05T05:44:44.145Z,97716.51
2023-01-05T05:47:11.726Z,97721.34
2023-01-05T05:49:39.706Z,97711.99
2023-01-05T05:52:07.525Z,97719.79
2023-01-05T05:54:35.297Z,97723.27
2023-01-05T05:57:02.882Z,97724.62
2023-01-05T05:59:30.369Z,97724.36
2023-01-05T06:01:58.382Z,97716.86
2023-01-05T06:04:26.348Z,97701.80
2023-01-05T06:06:54.185Z,97702.25
2023-01-05T06:09:21.775Z,97700.31
2023-01-05T06:11:49.565Z,97690.05
2023-01-05T06:14:17.165Z,97682.23
2023-01-05T06:16:45.306Z,97676.50
2023-01-05T06:19:12.923Z,97674.79
2023-01-05T06:21:40.541Z,97669.83
2023-01-05T06:24:09.281Z,97668.95
2023-01-05T06:26:36.712Z,97672.66
2023-01-05T06:29:04.221Z,97671.82
2023-01-05T06:31:31.832Z,97669.96
2023-01-05T06:33:59.307Z,97671.32
2023-01-05T06:36:27.074Z,97676.70
2023-01-05T06:38:54.842Z,97680.47
2023-01-05T06:41:22.387Z,97684.83
2023-01-05T06:43:50.028Z,97681.66
2023-01-05T06:46:17.409Z,97683.25
2023-01-05T06:48:45.077Z,97677.09
2023-01-05T06:51:12.733Z,97676.79
2023-01-05T06:53:40.440Z,97676.79
2023-01-05T06:56:08.104Z,97671.97
2023-01-05T06:58:35.867Z,97668.73
2023-01-05T07:01:03.813Z,97659.09
2023-01-05T07:03:31.718Z,97649.94
2023-01-05T07:05:59.391Z,97637.85
2023-01-05T07:08:27.395Z,97629.80
2023-01-05T07:10:55.247Z,97624.17
2023-01-05T07:13:23.190Z,97621.48
2023-01-05T07:15:50.785Z,97623.68
2023-01-05T07:18:18.261Z,97631.20
2023-01-05T07:20:45.807Z,97639.27
2023-01-05T07:23:13.451Z,97639.02
2023-01-05T07:25:41.089Z,97629.61
2023-01-05T07:28:08.932Z,97633.63
2023-01-05T07:30:36.578Z,97623.08
2023-01-05T07:33:04.770Z,97622.75
2023-01-05T07:35:32.654Z,97611.39
2023-01-05T07:38:00.101Z,97621.25
2023-01-05T07:40:28.108Z,97610.70
2023-01-05T07:42:55.549Z,97616.78
2023-01-05T07:45:23.391Z,97613.45
2023-01-05T07:47:50.916Z,97599.64
2023-01-05T07:50:21.442Z,97592.58
2023-01-05T07:52:48.921Z,97590.30
2023-01-05T07:55:16.845Z,97580.53
2023-01-05T07:57:44.423Z,97577.76
2023-01-05T08:00:14.462Z,97570.46
2023-01-05T08:02:43.310Z,97560.96
2023-01-05T08:05:11.189Z,97560.14
2023-01-05T08:07:38.747Z,97557.69
2023-01-05T08:10:25.761Z,97552.01
2023-01-05T08:13:12.250Z,97541.77
2023-01-05T08:15:39.755Z,97527.20
2023-01-05T08:18:07.321Z,97550.78
2023-01-05T08:20:34.793Z,97568.11
2023-01-05T08:23:02.898Z,97552.63
2023-01-05T08:25:30.346Z,97553.14
2023-01-05T08:27:59.444Z,97551.80
2023-01-05T08:30:27.169Z,97548.04
2023-01-05T08:32:54.679Z,97564.72
2023-01-05T08:35:22.482Z,97542.23
2023-01-05T08:37:50.482Z,97534.16
2023-01-05T08:40:18.122Z,97543.81
2023-01-05T08:42:47.502Z,97529.03
2023-01-05T08:45:16.084Z,97517.48
2023-01-05T08:47:44.493Z,97526.64
2023-01-05T08:50:12.545Z,97528.78
2023-01-05T08:52:40.674Z,97515.59
2023-01-05T08:55:08.791Z,97518.80
2023-01-05T08:57:36.338Z,97518.16
2023-01-05T09:00:05.768Z,97509.44
2023-01-05T09:02:33.549Z,97501.00
2023-01-05T09:05:02.499Z,97499.28
2023-01-05T09:07:30.134Z,97488.39
2023-01-05T09:09:57.740Z,97501.15
2023-01-05T09:12:30.921Z,97495.36
2023-01-05T09:14:54.852Z,97488.53
2023-01-05T09:17:22.693Z,97458.23
2023-01-05T09:19:50.150Z,97455.45
2023-01-05T09:22:18.510Z,97469.39
2023-01-05T09:24:46.601Z,97463.02
2023-01-05T09:27:15.232Z,97465.47
2023-01-05T09:29:42.675Z,97464.95
2023-01-05T09:32:11.065Z,97451.02
2023-01-05T09:34:38.499Z,97451.02
2023-01-05T09:37:06.044Z,97431.39
2023-01-05T09:39:33.764Z,97422.12
2023-01-05T09:42:05.404Z,97425.40
2023-01-05T09:44:44.255Z,97422.70
2023-01-05T09:47:40.553Z,97407.67
2023-01-05T09:50:18.531Z,97405.29
2023-01-05T09:52:47.137Z,97404.22
2023-01-05T09:55:19.138Z,97408.22
2023-01-05T09:57:57.682Z,97403.39
2023-01-05T10:00:26.645Z,97389.67
2023-01-05T10:03:01.434Z,97385.39
2023-01-05T10:05:32.312Z,97374.87
2023-01-05T10:08:07.737Z,97373.80
2023-01-05T10:11:26.405Z,97363.27
2023-01-05T10:14:16.236Z,97354.09
2023-01-05T10:16:46.326Z,97366.72
2023-01-05T10:19:16.928Z,97363.23
2023-01-05T10:22:02.188Z,97364.81
2023-01-05T10:24:40.734Z,97351.91
2023-01-05T10:27:28.721Z,97356.43
2023-01-05T10:30:04.751Z,97352.63
2023-01-05T10:33:26.855Z,97344.52
2023-01-05T10:36:00.662Z,97340.36
2023-01-05T10:38:25.469Z,97331.65
2023-01-05T10:41:07.881Z,97325.55
2023-01-05T10:44:04.960Z,97324.03
2023-01-05T10:46:40.681Z,97320.30
2023-01-05T10:49:02.210Z,97316.00
2023-01-05T10:51:33.488Z,97314.42
2023-01-05T10:54:03.524Z,97319.02
2023-01-05T10:56:32.631Z,97315.74
2023-01-05T10:59:09.877Z,97324.70
2023-01-05T11:01:42.142Z,97299.69
2023-01-05T11:04:34.008Z,97300.34
2023-01-05T11:06:52.363Z,97307.36
2023-01-05T11:09:23.718Z,97295.96
2023-01-05T11:11:58.889Z,97294.84
2023-01-05T11:14:29.438Z,97288.75
2023-01-05T11:17:04.310Z,97290.48
2023-01-05T11:19:40.182Z,97282.03
2023-01-05T11:22:36.537Z,97272.98
2023-01-05T11:25:28.945Z,97275.49
2023-01-05T11:28:15.407Z,97273.73
2023-01-05T11:30:59.459Z,97276.38
2023-01-05T11:33:29.652Z,97254.79
2023-01-05T11:35:58.612Z,97256.51
2023-01-05T11:38:31.372Z,97253.40
2023-01-05T11:41:00.519Z,97259.95
2023-01-05T11:43:31.812Z,97253.82
2023-01-05T11:46:04.651Z,97250.16
2023-01-05T11:48:35.487Z,97241.09
2023-01-05T11:51:03.421Z,97236.09
2023-01-05T11:53:38.526Z,97231.67
2023-01-05T11:56:20.891Z,97223.73
2023-01-05T11:58:54.641Z,97217.13
2023-01-05T12:01:52.721Z,97196.44
2023-01-05T12:04:55.571Z,97204.23
2023-01-05T12:07:28.754Z,97184.45
2023-01-05T12:10:21.739Z,97182.09
2023-01-05T12:13:23.333Z,97197.22
2023-01-05T12:16:31.125Z,97185.84
2023-01-05T12:19:30.113Z,97164.56
2023-01-05T12:22:19.957Z,97170.72
2023-01-05T12:24:52.983Z,97164.01
2023-01-05T12:28:05.056Z,97155.48
2023-01-05T12:36:33.678Z,97146.50
2023-01-05T12:39:31.573Z,97158.39
2023-01-05T12:42:25.312Z,97150.59
2023-01-05T12:45:32.380Z,97158.36
2023-01-05T12:48:11.486Z,97152.20
2023-01-05T12:50:55.971Z,97160.08
2023-01-05T12:53:41.102Z,97163.25
2023-01-05T12:56:32.419Z,97163.53
2023-01-05T12:59:28.237Z,97168.55
2023-01-05T13:02:18.522Z,97163.48
2023-01-05T13:04:56.208Z,97184.23
2023-01-05T13:07:29.255Z,97211.37
2023-01-05T13:10:03.363Z,97209.66
2023-01-05T13:12:37.196Z,97211.92
2023-01-05T13:15:21.407Z,97218.70
2023-01-05T13:17:53.603Z,97216.09
2023-01-05T13:20:32.609Z,97200.73
2023-01-05T13:23:08.537Z,97206.86
2023-01-05T13:26:05.657Z,97215.65
2023-01-05T13:28:35.098Z,97228.22
2023-01-05T13:31:45.425Z,97218.34
2023-01-05T13:34:47.163Z,97216.63
2023-01-05T13:37:41.056Z,97209.53
2023-01-05T13:40:30.463Z,97212.36
2023-01-05T13:43:30.317Z,97206.84
2023-01-05T13:46:30.265Z,97200.52
2023-01-05T13:49:37.056Z,97192.77
2023-01-05T13:52:28.437Z,97198.76
2023-01-05T13:55:02.469Z,97204.28
2023-01-05T13:57:41.305Z,97181.39
2023-01-05T14:00:29.699Z,97177.83
2023-01-05T14:03:08.738Z,97165.11
2023-01-05T14:05:57.646Z,97156.80
2023-01-05T14:08:36.136Z,97158.79
2023-01-05T14:11:17.671Z,97162.31
2023-01-05T14:14:08.081Z,97162.07
2023-01-05T14:16:41.825Z,97131.20
2023-01-05T14:22:22.786Z,97118.06
2023-01-05T14:24:50.461Z,97138.34
2023-01-05T14:27:21.525Z,97114.52
2023-01-05T14:29:59.582Z,97111.33
2023-01-05T14:32:41.933Z,97122.97
2023-01-05T14:35:23.591Z,97131.64
2023-01-05T14:37:56.693Z,97129.61
2023-01-05T14:40:41.746Z,97123.91
2023-01-05T14:43:32.012Z,97123.02
2023-01-05T14:46:10.573Z,97121.22
2023-01-05T14:49:00.793Z,97113.98
2023-01-05T14:51:33.128Z,97116.84
2023-01-05T14:54:04.279Z,97125.71
2023-01-05T14:56:35.348Z,97138.70
2023-01-05T14:59:19.441Z,97144.64
2023-01-05T15:02:04.409Z,97145.44
2023-01-05T15:04:37.203Z,97139.72
2023-01-05T15:07:26.200Z,97135.73
2023-01-05T15:10:28.335Z,97138.47
2023-01-05T15:16:18.326Z,97133.96
2023-01-05T15:19:06.279Z,97140.81
2023-01-05T15:22:07.957Z,97145.45
2023-01-05T15:24:56.110Z,97146.06
2023-01-05T15:27:50.040Z,97152.91
2023-01-05T15:30:44.273Z,97162.56
2023-01-05T15:33:37.308Z,97162.80
2023-01-05T15:36:06.583Z,97165.13
2023-01-05T15:38:46.578Z,97160.48
2023-01-05T15:41:17.868Z,97161.47
2023-01-05T15:43:46.776Z,97166.98
2023-01-05T15:46:22.247Z,97165.19
2023-01-05T15:48:53.233Z,97162.88
2023-01-05T15:51:30.744Z,97165.63
2023-01-05T15:54:01.743Z,97167.57
2023-01-05T15:56:41.291Z,97163.66
2023-01-05T15:59:29.055Z,97161.68
2023-01-05T16:01:56.668Z,97163.77
2023-01-05T16:04:24.933Z,97154.11
2023-01-05T16:06:59.967Z,97164.64
2023-01-05T16:09:35.050Z,97159.31
2023-01-05T16:12:10.947Z,97168.55
2023-01-05T16:14:45.288Z,97160.11
2023-01-05T16:17:21.559Z,97156.70
2023-01-05T16:20:07.414Z,97160.00
2023-01-05T16:22:40.739Z,97162.45
2023-01-05T16:25:24.580Z,97159.50
2023-01-05T16:27:58.587Z,97152.85
2023-01-05T16:30:41.721Z,97173.33
2023-01-05T16:33:35.487Z,97176.84
2023-01-05T16:36:21.940Z,97180.31
2023-01-05T16:38:49.807Z,97180.31
2023-01-05T16:41:26.070Z,97187.75
2023-01-05T16:43:57.865Z,97181.53
2023-01-05T16:46:33.197Z,97179.21
2023-01-05T16:49:41.153Z,97180.11
2023-01-05T16:52:09.037Z,97182.98
2023-01-05T16:54:40.196Z,97175.09
2023-01-05T16:57:35.485Z,97176.85
2023-01-05T17:00:06.649Z,97191.05
2023-01-05T17:02:48.509Z,97190.63
2023-01-05T17:05:22.465Z,97197.04
2023-01-05T17:08:04.489Z,97190.54
2023-01-05T17:10:32.456Z,97194.58
2023-01-05T17:13:07.631Z,97192.50
2023-01-05T17:15:36.439Z,97185.77
2023-01-05T17:18:24.133Z,97194.72
2023-01-05T17:20:54.573Z,97200.58
2023-01-05T17:23:35.712Z,97207.20
2023-01-05T17:26:07.356Z,97212.45
2023-01-05T17:28:35.058Z,97209.06
2023-01-05T17:31:03.529Z,97214.86
2023-01-05T17:33:31.189Z,97220.75
2023-01-05T17:35:58.763Z,97222.19
2023-01-05T17:38:26.205Z,97222.08
2023-01-05T17:40:53.789Z,97224.63
2023-01-05T17:43:21.317Z,97220.45
2023-01-05T17:45:49.129Z,97222.77
2023-01-05T17:48:17.038Z,97221.03
2023-01-05T17:50:45.550Z,97224.52
2023-01-05T17:53:13.046Z,97231.53
2023-01-05T17:55:42.506Z,97226.66
2023-01-05T17:58:13.910Z,97230.70
2023-01-05T18:00:43.933Z,97231.58
2023-01-05T18:03:16.927Z,97225.45
2023-01-05T18:05:44.788Z,97212.31
2023-01-05T18:08:12.533Z,97211.25
2023-01-05T18:13:09.607Z,97216.19
2023-01-05T18:15:44.048Z,97220.20
2023-01-05T18:18:13.096Z,97215.73
2023-01-05T18:20:42.048Z,97227.13
2023-01-05T18:23:10.417Z,97226.39
2023-01-05T18:25:39.086Z,97229.08
2023-01-05T18:28:07.383Z,97233.63
2023-01-05T18:30:35.466Z,97227.63
2023-01-05T18:33:03.311Z,97237.94
2023-01-05T18:35:31.154Z,97245.36
2023-01-05T18:38:00.645Z,97243.08
2023-01-05T18:40:28.934Z,97241.91
2023-01-05T18:42:56.505Z,97241.91
2023-01-05T18:45:38.478Z,97242.38
2023-01-05T18:47:58.119Z,97236.44
2023-01-05T18:50:26.110Z,97243.17
2023-01-05T18:52:53.977Z,97248.38
2023-01-05T18:55:21.898Z,97243.45
2023-01-05T18:57:49.539Z,97245.23
2023-01-05T19:00:17.660Z,97238.69
2023-01-05T19:02:45.107Z,97239.38
2023-01-05T19:05:12.869Z,97238.41
2023-01-05T19:07:41.304Z,97242.31
2023-01-05T19:10:09.452Z,97242.45
2023-01-05T19:12:37.891Z,97241.47
2023-01-05T19:15:06.410Z,97242.08
2023-01-05T19:17:34.370Z,97240.86
2023-01-05T19:20:02.178Z,97243.92
2023-01-05T19:22:29.881Z,97242.57
2023-01-05T19:24:58.388Z,97246.61
2023-01-05T19:27:27.596Z,97244.16
2023-01-05T19:29:55.110Z,97251.86
2023-01-05T19:32:23.662Z,97245.08
2023-01-05T19:34:51.379Z,97244.16
2023-01-05T19:37:18.875Z,97244.03
2023-01-05T19:39:46.541Z,97241.47
2023-01-05T19:42:14.259Z,97232.41
2023-01-05T19:44:41.642Z,97240.83
2023-01-05T19:47:09.199Z,97245.00
2023-01-05T19:49:36.709Z,97247.31
2023-01-05T19:52:04.676Z,97244.48
2023-01-05T19:54:32.289Z,97239.83
2023-01-05T19:56:59.865Z,97239.22
2023-01-05T19:59:29.391Z,97243.26
2023-01-05T20:01:57.216Z,97239.77
2023-01-05T20:04:25.073Z,97241.41
2023-01-05T20:06:53.116Z,97241.17
2023-01-05T20:09:21.601Z,97239.09
2023-01-05T20:11:54.764Z,97238.86
2023-01-05T20:14:32.301Z,97232.97
2023-01-05T20:17:06.184Z,97233.34
2023-01-05T20:19:35.456Z,97236.18
2023-01-05T20:22:07.147Z,97243.28
2023-01-05T20:24:36.799Z,97236.69
2023-01-05T20:27:09.388Z,97242.21
2023-01-05T20:29:37.434Z,97245.88
2023-01-05T20:32:15.770Z,97242.21
2023-01-05T20:34:45.738Z,97244.48
2023-01-05T20:37:13.289Z,97244.77
2023-01-05T20:39:41.738Z,97239.14
2023-01-05T20:42:11.011Z,97250.97
2023-01-05T20:44:42.705Z,97250.66
2023-01-05T20:47:11.377Z,97251.95
2023-01-05T20:49:40.126Z,97249.41
2023-01-05T20:52:10.162Z,97249.87
2023-01-05T20:54:39.652Z,97241.09
2023-01-05T20:57:07.953Z,97250.63
2023-01-05T20:59:41.103Z,97232.27
2023-01-05T21:02:22.442Z,97231.66
2023-01-05T21:04:41.296Z,97231.53
2023-01-05T21:07:08.835Z,97231.53
2023-01-05T21:09:36.496Z,97228.33
2023-01-05T21:12:05.198Z,97233.80
2023-01-05T21:14:33.011Z,97226.89
2023-01-05T21:17:00.722Z,97234.78
2023-01-05T21:19:28.258Z,97244.03
2023-01-05T21:21:57.546Z,97237.91
2023-01-05T21:24:26.341Z,97248.76
2023-01-05T21:26:54.623Z,97253.59
2023-01-05T21:29:25.326Z,97245.64
2023-01-05T21:31:56.696Z,97243.31
2023-01-05T21:34:25.335Z,97247.73
2023-01-05T21:36:52.991Z,97239.89
2023-01-05T21:39:24.276Z,97239.14
2023-01-05T21:42:11.693Z,97244.53
2023-01-05T21:44:39.981Z,97247.22
2023-01-05T21:47:08.075Z,97244.72
2023-01-05T21:49:36.367Z,97246.86
2023-01-05T21:52:24.092Z,97252.11
2023-01-05T21:55:10.322Z,97252.66
2023-01-05T21:57:37.929Z,97265.20
2023-01-05T22:00:06.989Z,97274.52
2023-01-05T22:02:34.696Z,97267.42
2023-01-05T22:05:02.662Z,97270.12
2023-01-05T22:07:30.427Z,97264.73
2023-01-05T22:09:58.210Z,97269.56
2023-01-05T22:12:25.800Z,97272.55
2023-01-05T22:14:53.487Z,97262.41
2023-01-05T22:17:21.231Z,97267.80
2023-01-05T22:19:48.746Z,97269.98
2023-01-05T22:22:16.368Z,97272.44
2023-01-05T22:24:44.176Z,97274.52
2023-01-05T22:27:11.804Z,97275.31
2023-01-05T22:29:40.296Z,97282.34
2023-01-05T22:32:07.995Z,97280.98
2023-01-05T22:34:36.735Z,97287.72
2023-01-05T22:37:04.422Z,97282.09
2023-01-05T22:39:32.033Z,97285.85
2023-01-05T22:41:59.774Z,97282.09
2023-01-05T22:44:27.287Z,97286.88
2023-01-05T22:46:56.923Z,97283.58
2023-01-05T22:49:24.458Z,97289.44
2023-01-05T22:51:51.932Z,97288.84
2023-01-05T22:54:19.844Z,97294.22
2023-01-05T22:56:47.388Z,97293.35
2023-01-05T22:59:14.998Z,97290.92
2023-01-05T23:01:44.459Z,97301.33
2023-01-05T23:04:12.553Z,97297.16
2023-01-05T23:06:40.779Z,97295.67
2023-01-05T23:09:13.458Z,97295.30
2023-01-05T23:11:44.709Z,97299.05
2023-01-05T23:14:14.365Z,97300.92
2023-01-05T23:16:42.126Z,97297.99
2023-01-05T23:19:12.087Z,97296.23
2023-01-05T23:21:39.877Z,97302.41
2023-01-05T23:24:08.426Z,97297.89
2023-01-05T23:26:36.118Z,97292.74
2023-01-05T23:29:04.164Z,97290.66
2023-01-05T23:31:31.631Z,97285.34
2023-01-05T23:33:59.443Z,97281.13
2023-01-05T23:36:27.180Z,97292.64
2023-01-05T23:38:55.899Z,97296.73
2023-01-05T23:41:23.470Z,97293.85
2023-01-05T23:43:51.071Z,97297.66
2023-01-05T23:46:21.110Z,97294.45
2023-01-05T23:48:50.701Z,97296.67
2023-01-05T23:51:18.670Z,97299.05
2023-01-05T23:53:49.418Z,97294.30
2023-01-05T23:56:28.325Z,97302.06
2023-01-05T23:59:00.086Z,97295.09
